Terminal Aerodrome Forecast
Issued by NWS Wilmington, OH

Current Version | Previous Version | Text Only | Print | Product List | Glossary Off
Versions: 1 2 3 4 5 6 7 8 9 10 11 12 13 14 15 16 17 18

531
FTUS41 KILN 201342 AAA
TAFDAY
TAF AMD
KDAY 201342Z 2014/2112 20006KT P6SM BKN060
     FM201800 24006KT P6SM SCT050
     FM210300 VRB04KT P6SM SKC
     FM210900 VRB03KT 5SM BR SKC=

USA.gov is the U.S. government's official web portal to all federal, state and local government web resources and services.